Latest Weather Observations for Lockhart River

IDQ60801

Issued at 3:02 am EST Tuesday 20 August 2019 (issued every 10 minutes, with the page automatically refreshed every 10 minutes)

About weather observations | Map of weather stations | Latest weather observations for QLD | Other Formats
Station Details ID: 028008 Name: LOCKHART RIVER AIRPORT Lat: -12.79 Lon: 143.30 Height: 18.5 m
Data from the previous 72 hours. | See also: Recent months at Lockhart River
Date/Time
EST
Temp
°C
App
Temp
°C
Dew
Point
°C
Rel
Hum
%
Delta-T
°C
Wind Press
QNH
hPa
Press
MSL
hPa
Rain since
9am
mm
Dir  Spd
km/h
Gust
km/h
Spd
kts
Gust
kts
20/03:00am 16.5 17.7 15.9 96 0.4 ESE 4 7 2 4 1016.0 1016.0 0.0
20/02:30am 16.6 17.8 16.0 96 0.4 S 4 6 2 3 1016.3 1016.3 0.0
20/02:00am 17.0 19.1 16.2 95 0.5 CALM 0 0 0 0 1016.6 1016.6 0.0
20/01:30am 17.1 19.1 16.1 94 0.6 CALM 0 0 0 0 1016.8 1016.8 0.0
20/01:00am 17.7 20.0 16.7 94 0.6 CALM 0 0 0 0 1016.9 1016.9 0.0
20/12:30am 18.1 20.5 17.0 93 0.7 CALM 0 0 0 0 1017.1 1017.1 0.0
20/12:00am 19.0 21.4 17.1 89 1.2 CALM 0 0 0 0 1017.1 1017.1 0.0
 
Date/Time
EST
Temp
°C
App
Temp
°C
Dew
Point
°C
Rel
Hum
%
Delta-T
°C
Wind Press
QNH
hPa
Press
MSL
hPa
Rain since
9am
mm
Dir  Spd
km/h
Gust
km/h
Spd
kts
Gust
kts
19/11:30pm 20.5 22.1 17.9 85 1.6 SSE 6 7 3 4 1017.0 1017.0 0.0
19/11:00pm 21.4 22.6 18.2 82 2.0 SE 9 15 5 8 1017.0 1017.0 0.0
19/10:30pm 21.4 22.7 18.4 83 1.9 SSE 9 13 5 7 1017.1 1017.1 0.0
19/10:00pm 22.1 23.4 18.5 80 2.3 SSE 9 15 5 8 1017.1 1017.1 0.0
19/09:30pm 22.4 23.0 18.6 79 2.4 SE 13 20 7 11 1016.8 1016.8 0.0
19/09:00pm 22.3 22.9 18.7 80 2.3 SSE 13 15 7 8 1016.7 1016.7 0.0
19/08:30pm 22.6 23.2 18.6 78 2.5 SSE 13 19 7 10 1016.3 1016.3 0.0
19/08:00pm 22.8 23.4 18.6 77 2.6 ESE 13 17 7 9 1016.1 1016.1 0.0
19/07:30pm 23.1 23.2 18.4 75 3.0 SE 15 19 8 10 1015.8 1015.8 0.0
19/07:00pm 23.5 23.3 18.4 73 3.2 SE 17 26 9 14 1015.4 1015.4 0.0
19/06:30pm 23.7 23.3 18.1 71 3.5 SE 17 20 9 11 1015.1 1015.1 0.0
19/06:00pm 24.3 23.3 18.0 68 4.0 SE 20 28 11 15 1014.8 1014.8 0.0
19/05:30pm 25.1 24.2 18.1 65 4.4 SE 20 28 11 15 1014.7 1014.7 0.0
19/05:00pm 25.4 23.9 17.6 62 4.9 ESE 22 32 12 17 1014.5 1014.5 0.0
19/04:30pm 25.8 24.1 18.0 62 4.9 SE 24 35 13 19 1014.2 1014.2 0.0
19/04:00pm 26.4 24.8 18.3 61 5.1 SE 24 33 13 18 1014.1 1014.1 0.0
19/03:30pm 26.2 25.3 18.1 61 5.1 ESE 20 32 11 17 1014.0 1014.0 0.0
19/03:00pm 27.1 26.4 18.7 60 5.4 ESE 20 33 11 18 1014.0 1014.0 0.0
19/02:30pm 26.9 25.2 18.2 59 5.5 ESE 24 35 13 19 1014.4 1014.4 0.0
19/02:00pm 27.6 26.1 18.6 58 5.8 ESE 24 35 13 19 1014.7 1014.7 0.0
19/01:30pm 28.0 26.6 18.7 57 6.0 SE 24 37 13 20 1015.1 1015.1 0.0
19/01:00pm 27.3 26.2 18.6 59 5.6 ESE 22 39 12 21 1015.4 1015.4 0.0
19/12:30pm 26.4 24.1 17.7 58 5.5 ESE 26 37 14 20 1015.6 1015.6 0.0
19/12:00pm 26.9 24.9 17.4 56 6.0 ESE 24 35 13 19 1016.1 1016.1 0.0
19/11:30am 26.4 24.0 18.3 61 5.1 SE 28 35 15 19 1016.5 1016.5 0.0
19/11:00am 26.8 25.4 18.9 62 5.1 SE 24 35 13 19 1016.7 1016.7 0.0
19/10:30am 26.2 24.0 18.6 63 4.8 SE 28 37 15 20 1016.8 1016.8 0.0
19/10:00am 26.1 25.2 19.0 65 4.5 SE 22 32 12 17 1016.7 1016.7 0.0
19/09:30am 25.5 24.3 19.2 68 4.0 SE 24 37 13 20 1016.5 1016.5 0.0
19/09:00am 24.8 23.3 19.4 72 3.5 SE 26 33 14 18 1016.2 1016.2 0.0
19/08:30am 24.2 23.3 19.1 73 3.3 SE 22 32 12 17 1016.0 1016.0 0.0
19/08:00am 24.0 23.2 19.3 75 3.0 SE 22 32 12 17 1015.8 1015.8 0.0
19/07:30am 23.4 24.4 19.5 79 2.5 SE 13 20 7 11 1015.5 1015.5 0.0
19/07:00am 22.5 23.4 19.3 82 2.0 SE 13 17 7 9 1015.2 1015.2 0.0
19/06:30am 22.0 23.0 18.6 81 2.1 SE 11 15 6 8 1014.8 1014.8 0.0
19/06:00am 22.9 23.3 18.9 78 2.5 SE 15 19 8 10 1014.5 1014.5 0.0
19/05:30am 23.5 23.1 19.0 76 2.9 ESE 19 26 10 14 1014.4 1014.4 0.0
19/05:00am 22.9 24.2 19.3 80 2.3 SSE 11 15 6 8 1014.3 1014.3 0.0
19/04:30am 22.6 23.8 19.0 80 2.3 SE 11 13 6 7 1014.2 1014.2 0.0
19/04:00am 22.6 23.4 19.0 80 2.3 SE 13 17 7 9 1014.3 1014.3 0.0
19/03:30am 22.8 23.5 19.6 82 2.0 SE 15 24 8 13 1014.4 1014.4 0.0
19/03:00am 23.0 23.8 19.8 82 2.1 SE 15 22 8 12 1014.5 1014.5 0.0
19/02:30am 22.8 24.3 19.8 83 1.9 SE 11 13 6 7 1014.7 1014.7 0.0
19/02:00am 23.0 24.1 19.6 81 2.2 SE 13 19 7 10 1015.0 1015.0 0.0
19/01:30am 23.0 24.1 19.6 81 2.2 SE 13 17 7 9 1015.4 1015.4 0.0
19/01:00am 23.4 23.9 19.3 78 2.6 SE 15 24 8 13 1015.7 1015.7 0.0
19/12:30am 23.5 23.6 19.2 77 2.7 SE 17 24 9 13 1015.9 1015.9 0.0
19/12:00am 23.4 23.1 19.1 77 2.7 ESE 19 24 10 13 1016.2 1016.2 0.0
 
Date/Time
EST
Temp
°C
App
Temp
°C
Dew
Point
°C
Rel
Hum
%
Delta-T
°C
Wind Press
QNH
hPa
Press
MSL
hPa
Rain since
9am
mm
Dir  Spd
km/h
Gust
km/h
Spd
kts
Gust
kts
18/11:30pm 23.5 23.6 19.2 77 2.7 SE 17 24 9 13 1016.4 1016.4 0.0
18/11:00pm 23.4 24.0 19.5 79 2.5 ESE 15 24 8 13 1016.4 1016.4 0.0
18/10:30pm 23.8 24.1 20.3 81 2.3 SE 19 28 10 15 1016.5 1016.5 0.0
18/10:00pm 23.9 24.1 20.2 80 2.4 SE 19 26 10 14 1016.4 1016.4 0.0
18/09:30pm 23.8 24.8 20.3 81 2.3 ESE 15 22 8 12 1016.3 1016.3 0.0
18/09:00pm 23.7 24.1 19.8 79 2.5 SE 17 22 9 12 1016.3 1016.3 0.0
18/08:30pm 23.7 24.1 19.8 79 2.5 SE 17 24 9 13 1016.1 1016.1 0.0
18/08:00pm 23.7 24.1 19.8 79 2.5 ESE 17 22 9 12 1015.8 1015.8 0.0
18/07:30pm 23.7 24.0 19.6 78 2.6 ESE 17 24 9 13 1015.6 1015.6 0.0
18/07:00pm 23.9 24.3 19.8 78 2.6 SE 17 24 9 13 1015.3 1015.3 0.0
18/06:30pm 24.3 24.0 19.6 75 3.0 SE 20 26 11 14 1015.1 1015.1 0.0
18/06:00pm 24.7 23.5 19.3 72 3.5 SE 24 32 13 17 1014.7 1014.7 0.0
18/05:30pm 25.4 24.2 19.3 69 3.9 SE 24 35 13 19 1014.4 1014.4 0.0
18/05:00pm 25.3 24.0 19.0 68 4.0 ESE 24 39 13 21 1014.1 1014.1 0.0
18/04:30pm 25.8 24.1 19.0 66 4.4 SE 26 35 14 19 1014.1 1014.1 0.0
18/04:00pm 26.5 25.1 19.6 66 4.5 SE 26 35 14 19 1014.0 1014.0 0.0
18/03:30pm 26.9 25.2 19.8 65 4.6 SE 28 37 15 20 1014.0 1014.0 0.0
18/03:00pm 26.5 25.0 19.4 65 4.6 ESE 26 35 14 19 1013.9 1013.9 0.0
18/02:30pm 26.6 24.5 19.0 63 4.9 SE 28 39 15 21 1014.1 1014.1 0.0
18/02:00pm 26.8 25.1 19.7 65 4.6 SE 28 43 15 23 1014.6 1014.6 0.0
18/01:30pm 26.3 25.4 19.9 68 4.2 ESE 24 33 13 18 1015.0 1015.0 0.0
18/01:00pm 26.7 24.9 19.6 65 4.6 SE 28 39 15 21 1015.6 1015.6 0.0
18/12:30pm 27.3 25.6 18.9 60 5.4 SE 26 39 14 21 1015.8 1015.8 0.0
18/12:00pm 26.4 25.5 19.8 67 4.3 SE 24 43 13 23 1016.3 1016.3 0.0
18/11:30am 26.4 26.1 20.3 69 4.0 SE 22 32 12 17 1016.7 1016.7 0.0
18/11:00am 25.6 24.9 20.2 72 3.5 SE 24 33 13 18 1017.1 1017.1 0.0
18/10:30am 25.2 24.1 20.2 74 3.3 SE 26 35 14 19 1017.4 1017.4 0.0
18/10:00am 25.5 25.6 20.3 73 3.4 SE 20 32 11 17 1017.5 1017.5 0.0
18/09:30am 25.0 24.4 20.5 76 2.9 SE 24 32 13 17 1017.4 1017.4 0.0
18/09:00am 24.5 23.8 20.2 77 2.8 SE 24 33 13 18 1017.2 1017.2 0.0
18/08:30am 24.3 24.0 20.4 79 2.5 SE 22 39 12 21 1016.9 1016.9 0.0
18/08:00am 23.5 23.8 20.4 83 2.0 SE 19 26 10 14 1016.4 1016.4 0.0
18/07:30am 22.4 24.7 20.7 90 1.1 S 9 20 5 11 1016.1 1016.1 0.0
18/07:00am 21.4 23.4 20.0 92 0.9 S 9 11 5 6 1015.7 1015.7 0.0
18/06:30am 21.7 23.6 19.8 89 1.2 S 9 13 5 7 1015.5 1015.5 0.0
18/06:00am 22.3 24.2 20.6 90 1.1 SE 11 15 6 8 1015.3 1015.3 0.0
18/05:30am 22.1 23.8 20.2 89 1.2 SE 11 17 6 9 1015.1 1015.1 0.0
18/05:00am 22.0 23.8 20.3 90 1.1 SE 11 13 6 7 1015.1 1015.1 0.0
18/04:30am 22.2 23.6 20.3 89 1.2 SE 13 17 7 9 1015.0 1015.0 0.0
18/04:28am 22.2 23.6 20.3 89 1.2 SE 13 17 7 9 1015.1 1015.1 0.0
18/04:00am 22.3 23.7 20.4 89 1.2 SE 13 17 7 9 1015.0 1015.0 0.0
18/03:39am 22.3 23.6 20.2 88 1.4 SSE 13 15 7 8 1015.1 1015.1 0.0
18/03:30am 22.4 23.7 20.1 87 1.5 SSE 13 15 7 8 1015.0 1015.0 0.0
18/03:00am 22.8 23.3 20.1 85 1.7 SSE 17 20 9 11 1015.2 1015.2 0.0
18/02:58am 22.8 23.3 20.1 85 1.7 SSE 17 20 9 11 1015.2 1015.2 0.0
18/02:30am 23.2 23.5 20.3 84 1.9 SE 19 24 10 13 1015.6 1015.6 0.0
18/02:00am 23.5 23.6 20.4 83 2.0 SE 20 30 11 16 1015.8 1015.8 0.0
18/01:31am 23.3 24.5 20.6 85 1.8 SE 15 20 8 11 1016.1 1016.1 0.0
18/01:30am 23.3 24.5 20.6 85 1.8 SE 15 20 8 11 1016.1 1016.1 0.0
18/01:00am 22.9 24.3 20.4 86 1.6 SSE 13 17 7 9 1016.6 1016.6 0.0
18/12:30am 23.2 24.3 20.5 85 1.8 SE 15 20 8 11 1016.9 1016.9 0.0
18/12:08am 23.5 24.2 20.4 83 2.0 SE 17 22 9 12 1017.0 1017.0 0.0
18/12:00am 23.6 24.3 20.5 83 2.0 SE 17 20 9 11 1017.0 1017.0 0.0
 
Date/Time
EST
Temp
°C
App
Temp
°C
Dew
Point
°C
Rel
Hum
%
Delta-T
°C
Wind Press
QNH
hPa
Press
MSL
hPa
Rain since
9am
mm
Dir  Spd
km/h
Gust
km/h
Spd
kts
Gust
kts
17/11:30pm 23.7 23.8 20.4 82 2.1 SE 20 32 11 17 1017.0 1017.0 0.0
17/11:25pm 23.7 23.7 20.2 81 2.3 SE 20 32 11 17 1017.0 1017.0 0.0
17/11:06pm 23.7 23.8 20.4 82 2.1 SE 20 32 11 17 1017.0 1017.0 0.0
17/11:00pm 23.7 23.8 20.4 82 2.1 SE 20 28 11 15 1017.0 1017.0 0.0
17/10:30pm 23.5 23.8 20.4 83 2.0 SE 19 28 10 15 1017.0 1017.0 0.0
17/10:00pm 23.4 24.5 20.5 84 1.9 SE 15 20 8 11 1016.9 1016.9 0.0
17/09:30pm 23.2 23.8 20.3 84 1.9 SE 17 24 9 13 1016.6 1016.6 0.0
17/09:00pm 23.3 24.7 20.4 84 1.9 SE 13 17 7 9 1016.6 1016.6 0.0
17/08:38pm 23.3 24.6 20.2 83 2.0 SE 13 17 7 9 1016.4 1016.4 0.0
17/08:30pm 23.3 24.6 20.2 83 2.0 SE 13 17 7 9 1016.4 1016.4 0.0
17/08:00pm 23.4 24.8 20.3 83 2.0 SSE 13 17 7 9 1016.0 1016.0 0.0
17/07:58pm 23.3 24.6 20.2 83 2.0 SSE 13 17 7 9 1016.0 1016.0 0.0
17/07:30pm 23.6 24.5 20.1 81 2.3 SE 15 20 8 11 1015.7 1015.7 0.0
17/07:00pm 23.6 24.4 19.9 80 2.4 SSE 15 19 8 10 1015.2 1015.2 0.0
17/06:30pm 24.1 24.6 20.0 78 2.7 SSE 17 22 9 12 1015.1 1015.1 0.0
17/06:00pm 24.6 25.9 20.1 76 2.9 SSE 13 22 7 12 1014.9 1014.9 0.0
17/05:30pm 24.9 24.4 19.9 74 3.2 SE 22 28 12 15 1014.7 1014.7 0.0
17/05:00pm 25.2 24.3 19.8 72 3.5 SE 24 32 13 17 1014.6 1014.6 0.0
17/04:30pm 25.6 25.2 20.2 72 3.5 SE 22 32 12 17 1014.5 1014.5 0.0
17/04:00pm 25.7 25.8 20.3 72 3.5 SSE 20 30 11 16 1014.4 1014.4 0.0
17/03:30pm 25.4 24.4 20.4 74 3.3 SSE 26 33 14 18 1014.4 1014.4 0.0
17/03:00pm 25.9 25.2 20.2 71 3.7 SE 24 35 13 19 1014.6 1014.6 0.0
17/02:30pm 25.9 24.0 20.2 71 3.7 SE 30 37 16 20 1014.6 1014.6 0.0
17/02:00pm 26.8 25.5 20.6 69 4.1 SE 28 39 15 21 1014.8 1014.8 0.0
17/01:30pm 25.8 24.6 20.1 71 3.7 SE 26 39 14 21 1015.2 1015.2 0.0
17/01:00pm 26.2 24.5 19.8 68 4.1 ESE 28 41 15 22 1015.4 1015.4 0.0
17/12:30pm 27.2 25.6 20.0 64 4.7 SE 28 37 15 20 1015.6 1015.6 0.0
17/12:00pm 26.4 25.2 20.0 68 4.2 ESE 26 41 14 22 1015.9 1015.9 0.0
17/11:30am 26.1 24.3 19.5 67 4.3 ESE 28 41 15 22 1016.3 1016.3 0.0
17/11:19am 26.6 24.8 19.5 65 4.6 SE 28 46 15 25 1016.4 1016.4 0.0
17/11:00am 26.3 25.0 19.9 68 4.2 SE 26 39 14 21 1016.6 1016.6 0.0
17/10:30am 26.5 24.1 19.9 67 4.3 SE 32 44 17 24 1016.9 1016.9 0.0
17/10:00am 26.6 25.4 20.9 71 3.8 SE 28 39 15 21 1017.0 1017.0 0.0
17/09:30am 25.7 24.3 20.5 73 3.4 SE 28 37 15 20 1016.9 1016.9 0.0
17/09:00am 25.2 24.4 20.0 73 3.4 SE 24 39 13 21 1016.8 1016.8 0.0
17/08:30am 25.3 23.5 20.3 74 3.3 SE 30 43 16 23 1016.6 1016.6 0.0
17/08:00am 24.4 24.6 20.5 79 2.5 SE 20 28 11 15 1016.4 1016.4 0.0
17/07:30am 24.0 24.3 20.3 80 2.4 SE 19 26 10 14 1016.1 1016.1 0.0
17/07:00am 23.7 23.9 20.2 81 2.3 SE 19 26 10 14 1015.9 1015.9 0.0
17/06:30am 23.5 24.1 20.2 82 2.1 SE 17 24 9 13 1015.5 1015.5 0.0
17/06:00am 23.4 23.9 20.0 81 2.2 SE 17 26 9 14 1015.1 1015.1 0.0
17/05:30am 23.7 23.5 19.8 79 2.5 SE 20 28 11 15 1015.0 1015.0 0.0
17/05:00am 23.6 24.0 19.9 80 2.4 SE 17 24 9 13 1014.7 1014.7 0.0
17/04:30am 23.8 23.9 19.9 79 2.5 SE 19 26 10 14 1014.8 1014.8 0.0
17/04:00am 23.5 23.8 19.6 79 2.5 SE 17 26 9 14 1014.8 1014.8 0.0
17/03:30am 23.5 24.5 20.2 82 2.1 SE 15 19 8 10 1014.9 1014.9 0.0

Other formats

Comma delimited format used in spreadsheet applications
http://www.bom.gov.au/fwo/IDQ60801/IDQ60801.94186.axf

JavaScript Object Notation format (JSON) in row-major order
http://www.bom.gov.au/fwo/IDQ60801/IDQ60801.94186.json

Data quality

Most of these data are generated automatically and are frequently updated. Quality checks on data are not normally performed. It is possible for incorrect values to appear. Refer to information at About Latest Weather Observations and please check the disclaimer before using these data.